Arabian — WDC2629 — position and weather

sailwx.info

Track history (hours):
 
Tides and Currents Weather Stations Pressure Air Temp Water Temp Dewpoint Dewpoint Depression Visibility Wind Speed Wind Dir Waves Ship Positions

Arabian

Owner: Kirby Inland Marine LP, Houston, TX. More information available from US FCC via Universal Licensing System and Coast Guard Vessel Documentation Center.

Last reported at 2017-Nov-11 00:30 UTC. Time now 2017-Nov-21 06:32 UTC.
Position N 29°46' W 095°05'.
Warning: this ship's position is 10 days out of date.

Length 78 m; draft 2.3 m.

Type: . MMSI: 366995770.

Date/timePositionNaut miles runAvg speedWind from/ knotsBaromVisibWave heightAir tempDewpointWater temp
2017-Nov-11 00:30N 29°46' W 095°05'4 6.2
2017-Nov-10 23:53N 29°44' W 095°02'2 5.4
2017-Nov-10 23:30N 29°42' W 095°00'2 4.6
2017-Nov-10 23:01N 29°41' W 094°58'2 0.1
2017-Nov-10 09:44N 29°43' W 094°57'1 1.1
2017-Nov-10 09:07N 29°43' W 094°56'1 3.0
2017-Nov-10 08:56N 29°42' W 094°56'1 1.4
2017-Nov-10 08:29N 29°42' W 094°55'2 3.2
2017-Nov-10 08:01N 29°41' W 094°56'2 3.7
2017-Nov-10 07:24N 29°41' W 094°58'2 4.4
2017-Nov-10 06:57N 29°42' W 095°00'6 5.0
2017-Nov-10 05:49N 29°46' W 095°05'2 5.8
2017-Nov-10 05:27N 29°44' W 095°07'3 5.6
2017-Nov-10 05:00N 29°45' W 095°10'1 1.6
2017-Nov-10 04:27N 29°45' W 095°11'0 0.1
2017-Nov-10 03:59N 29°45' W 095°11'1 2.0
2017-Nov-10 03:30N 29°45' W 095°10'5 0.3
2017-Nov-09 09:22N 29°44' W 095°04'1 0.7
2017-Nov-09 08:30N 29°44' W 095°03'1 0.2
2017-Nov-09 02:41N 29°45' W 095°04'0 0.0
2017-Nov-07 23:35N 29°46' W 095°04'1 5.5
2017-Nov-07 23:24N 29°45' W 095°04'2 5.1
2017-Nov-07 23:00N 29°44' W 095°02'2 4.5
2017-Nov-07 22:30N 29°42' W 094°60'2 4.0
2017-Nov-07 22:01N 29°41' W 094°58'2 0.6
2017-Nov-07 18:39N 29°43' W 094°57'1 4.8
2017-Nov-07 18:30N 29°43' W 094°56'1 2.7
2017-Nov-07 17:57N 29°42' W 094°55'3 3.8
2017-Nov-07 17:13N 29°41' W 094°58'6 0.4
2017-Nov-07 03:14N 29°45' W 095°04'2 6.8
2017-Nov-07 02:53N 29°44' W 095°02'2 6.4
2017-Nov-07 02:30N 29°42' W 094°60'3 5.7
2017-Nov-07 02:01N 29°41' W 094°57'2 0.6
2017-Nov-06 22:32N 29°43' W 094°57'1 4.8
2017-Nov-06 22:24N 29°43' W 094°56'1 2.8
2017-Nov-06 22:00N 29°42' W 094°55'3 2.4
2017-Nov-06 20:41N 29°41' W 094°59'1 3.6
2017-Nov-06 20:30N 29°41' W 094°59'8 0.2
2017-Nov-05 01:10N 29°44' W 095°08'0 0.0
2017-Nov-04 07:03N 29°44' W 095°08'0 0.0
2017-Nov-04 07:00N 29°44' W 095°08'0 0.0
2017-Nov-04 06:27N 29°44' W 095°08'0 0.0
2017-Nov-04 06:00N 29°44' W 095°08'4 0.4
2017-Nov-03 20:08N 29°44' W 095°04'2 4.8
2017-Nov-03 19:37N 29°43' W 095°01'1 4.8
2017-Nov-03 19:30N 29°42' W 095°01'2 4.9
2017-Nov-03 19:01N 29°41' W 094°59'2 4.1
2017-Nov-03 18:30N 29°41' W 094°57'2 0.8
2017-Nov-03 15:25N 29°43' W 094°57'1 2.7
2017-Nov-03 14:54N 29°42' W 094°55'1 1.3
2017-Nov-03 14:24N 29°42' W 094°55'2 2.6
2017-Nov-03 13:46N 29°41' W 094°57'1 4.3
2017-Nov-03 13:30N 29°41' W 094°58'4 1.3
2017-Nov-03 10:43N 29°44' W 095°01'4 2.0
2017-Nov-03 08:48N 29°45' W 095°05'2 5.6
2017-Nov-03 08:30N 29°44' W 095°07'1 0.8
2017-Nov-03 07:20N 29°44' W 095°08'0 0.0
2017-Nov-02 11:16N 29°44' W 095°08'0 0.1
2017-Nov-02 10:52N 29°44' W 095°08'0 0.0
2017-Nov-02 10:24N 29°44' W 095°08'0 0.0
2017-Nov-02 09:43N 29°44' W 095°08'0 0.0
2017-Nov-02 09:26N 29°44' W 095°08'0 0.0
2017-Nov-02 08:55N 29°44' W 095°08'0 0.0
2017-Nov-02 08:27N 29°44' W 095°08'0 0.0
2017-Nov-02 07:54N 29°44' W 095°08'0 0.0
2017-Nov-02 07:30N 29°44' W 095°08'2 4.0
2017-Nov-02 06:56N 29°45' W 095°10'0 0.7
2017-Nov-02 06:30N 29°45' W 095°10'0 0.1
2017-Nov-02 06:00N 29°45' W 095°10'0 0.0
2017-Nov-02 05:29N 29°45' W 095°10'2 3.2
2017-Nov-02 05:00N 29°44' W 095°09'4 0.2
2017-Nov-01 01:10N 29°45' W 095°04'  
Track history (hours):
 
Tides and Currents Weather Stations Pressure Air Temp Water Temp Dewpoint Dewpoint Depression Visibility Wind Speed Wind Dir Waves Ship Positions

Arabian

Owner: Kirby Inland Marine LP, Houston, TX. More information available from US FCC via Universal Licensing System and Coast Guard Vessel Documentation Center.

Last reported at 2017-Nov-11 00:30 UTC. Time now 2017-Nov-21 06:32 UTC.
Position N 29°46' W 095°05'.
Warning: this ship's position is 10 days out of date.

Length 78 m; draft 2.3 m.

Type: . MMSI: 366995770.

Date/timePositionNaut miles runAvg speedWind from/ knotsBaromVisibWave heightAir tempDewpointWater temp
2017-Nov-11 00:30N 29°46' W 095°05'4 6.2
2017-Nov-10 23:53N 29°44' W 095°02'2 5.4
2017-Nov-10 23:30N 29°42' W 095°00'2 4.6
2017-Nov-10 23:01N 29°41' W 094°58'2 0.1
2017-Nov-10 09:44N 29°43' W 094°57'1 1.1
2017-Nov-10 09:07N 29°43' W 094°56'1 3.0
2017-Nov-10 08:56N 29°42' W 094°56'1 1.4
2017-Nov-10 08:29N 29°42' W 094°55'2 3.2
2017-Nov-10 08:01N 29°41' W 094°56'2 3.7
2017-Nov-10 07:24N 29°41' W 094°58'2 4.4
2017-Nov-10 06:57N 29°42' W 095°00'6 5.0
2017-Nov-10 05:49N 29°46' W 095°05'2 5.8
2017-Nov-10 05:27N 29°44' W 095°07'3 5.6
2017-Nov-10 05:00N 29°45' W 095°10'1 1.6
2017-Nov-10 04:27N 29°45' W 095°11'0 0.1
2017-Nov-10 03:59N 29°45' W 095°11'1 2.0
2017-Nov-10 03:30N 29°45' W 095°10'5 0.3
2017-Nov-09 09:22N 29°44' W 095°04'1 0.7
2017-Nov-09 08:30N 29°44' W 095°03'1 0.2
2017-Nov-09 02:41N 29°45' W 095°04'0 0.0
2017-Nov-07 23:35N 29°46' W 095°04'1 5.5
2017-Nov-07 23:24N 29°45' W 095°04'2 5.1
2017-Nov-07 23:00N 29°44' W 095°02'2 4.5
2017-Nov-07 22:30N 29°42' W 094°60'2 4.0
2017-Nov-07 22:01N 29°41' W 094°58'2 0.6
2017-Nov-07 18:39N 29°43' W 094°57'1 4.8
2017-Nov-07 18:30N 29°43' W 094°56'1 2.7
2017-Nov-07 17:57N 29°42' W 094°55'3 3.8
2017-Nov-07 17:13N 29°41' W 094°58'6 0.4
2017-Nov-07 03:14N 29°45' W 095°04'2 6.8
2017-Nov-07 02:53N 29°44' W 095°02'2 6.4
2017-Nov-07 02:30N 29°42' W 094°60'3 5.7
2017-Nov-07 02:01N 29°41' W 094°57'2 0.6
2017-Nov-06 22:32N 29°43' W 094°57'1 4.8
2017-Nov-06 22:24N 29°43' W 094°56'1 2.8
2017-Nov-06 22:00N 29°42' W 094°55'3 2.4
2017-Nov-06 20:41N 29°41' W 094°59'1 3.6
2017-Nov-06 20:30N 29°41' W 094°59'8 0.2
2017-Nov-05 01:10N 29°44' W 095°08'0 0.0
2017-Nov-04 07:03N 29°44' W 095°08'0 0.0
2017-Nov-04 07:00N 29°44' W 095°08'0 0.0
2017-Nov-04 06:27N 29°44' W 095°08'0 0.0
2017-Nov-04 06:00N 29°44' W 095°08'4 0.4
2017-Nov-03 20:08N 29°44' W 095°04'2 4.8
2017-Nov-03 19:37N 29°43' W 095°01'1 4.8
2017-Nov-03 19:30N 29°42' W 095°01'2 4.9
2017-Nov-03 19:01N 29°41' W 094°59'2 4.1
2017-Nov-03 18:30N 29°41' W 094°57'2 0.8
2017-Nov-03 15:25N 29°43' W 094°57'1 2.7
2017-Nov-03 14:54N 29°42' W 094°55'1 1.3
2017-Nov-03 14:24N 29°42' W 094°55'2 2.6
2017-Nov-03 13:46N 29°41' W 094°57'1 4.3
2017-Nov-03 13:30N 29°41' W 094°58'4 1.3
2017-Nov-03 10:43N 29°44' W 095°01'4 2.0
2017-Nov-03 08:48N 29°45' W 095°05'2 5.6
2017-Nov-03 08:30N 29°44' W 095°07'1 0.8
2017-Nov-03 07:20N 29°44' W 095°08'0 0.0
2017-Nov-02 11:16N 29°44' W 095°08'0 0.1
2017-Nov-02 10:52N 29°44' W 095°08'0 0.0
2017-Nov-02 10:24N 29°44' W 095°08'0 0.0
2017-Nov-02 09:43N 29°44' W 095°08'0 0.0
2017-Nov-02 09:26N 29°44' W 095°08'0 0.0
2017-Nov-02 08:55N 29°44' W 095°08'0 0.0
2017-Nov-02 08:27N 29°44' W 095°08'0 0.0
2017-Nov-02 07:54N 29°44' W 095°08'0 0.0
2017-Nov-02 07:30N 29°44' W 095°08'2 4.0
2017-Nov-02 06:56N 29°45' W 095°10'0 0.7
2017-Nov-02 06:30N 29°45' W 095°10'0 0.1
2017-Nov-02 06:00N 29°45' W 095°10'0 0.0
2017-Nov-02 05:29N 29°45' W 095°10'2 3.2
2017-Nov-02 05:00N 29°44' W 095°09'4 0.2
2017-Nov-01 01:10N 29°45' W 095°04'  

Dump ship's entire track history